createdAt,value
2022-11-22T00:01:12.904Z,6.15
2022-11-22T00:05:14.818Z,6.13
2022-11-22T00:09:16.521Z,6.11
2022-11-22T00:13:19.023Z,6.08
2022-11-22T00:17:20.745Z,6.05
2022-11-22T00:21:22.474Z,6.01
2022-11-22T00:25:24.284Z,5.98
2022-11-22T00:29:26.361Z,5.94
2022-11-22T00:33:28.285Z,5.89
2022-11-22T00:37:29.979Z,5.87
2022-11-22T00:41:31.793Z,5.85
2022-11-22T00:45:33.480Z,5.81
2022-11-22T00:49:35.174Z,5.82
2022-11-22T00:53:36.838Z,5.83
2022-11-22T00:57:38.555Z,5.86
2022-11-22T01:01:40.257Z,5.89
2022-11-22T01:05:42.058Z,5.92
2022-11-22T01:09:43.893Z,5.92
2022-11-22T01:13:45.536Z,5.92
2022-11-22T01:17:47.238Z,5.87
2022-11-22T01:21:48.993Z,5.82
2022-11-22T01:25:50.680Z,5.77
2022-11-22T01:29:52.354Z,5.72
2022-11-22T01:33:54.251Z,5.68
2022-11-22T01:37:55.897Z,5.63
2022-11-22T01:41:57.601Z,5.59
2022-11-22T01:46:08.382Z,5.56
2022-11-22T01:50:15.792Z,5.52
2022-11-22T01:54:22.638Z,5.50
2022-11-22T01:58:25.992Z,5.47
2022-11-22T02:02:28.187Z,5.44
2022-11-22T02:06:41.279Z,5.43
2022-11-22T02:10:47.006Z,5.39
2022-11-22T02:14:49.518Z,5.38
2022-11-22T02:18:51.328Z,5.38
2022-11-22T02:23:14.096Z,5.37
2022-11-22T02:27:15.824Z,5.35
2022-11-22T02:31:35.456Z,5.31
2022-11-22T02:35:37.171Z,5.28
2022-11-22T02:39:41.460Z,5.23
2022-11-22T02:43:46.045Z,5.21
2022-11-22T02:47:47.692Z,5.17
2022-11-22T02:51:50.734Z,5.14
2022-11-22T02:55:52.485Z,5.08
2022-11-22T02:59:54.234Z,5.05
2022-11-22T03:03:55.902Z,5.02
2022-11-22T03:07:57.636Z,4.97
2022-11-22T03:11:59.528Z,4.94
2022-11-22T03:16:01.223Z,4.94
2022-11-22T03:20:03.438Z,4.93
2022-11-22T03:24:06.283Z,4.95
2022-11-22T03:28:08.089Z,4.98
2022-11-22T03:32:09.765Z,5.00
2022-11-22T03:36:11.506Z,5.01
2022-11-22T03:40:13.564Z,5.01
2022-11-22T03:44:15.330Z,5.02
2022-11-22T03:48:17.135Z,5.02
2022-11-22T03:52:18.824Z,4.99
2022-11-22T03:56:20.538Z,4.98
2022-11-22T04:00:23.692Z,4.95
2022-11-22T04:04:25.706Z,4.93
2022-11-22T04:08:27.474Z,4.89
2022-11-22T04:12:30.490Z,4.87
2022-11-22T04:16:32.220Z,4.82
2022-11-22T04:20:53.047Z,4.77
2022-11-22T04:25:13.299Z,4.73
2022-11-22T04:29:15.893Z,4.70
2022-11-22T04:33:17.656Z,4.66
2022-11-22T04:37:19.351Z,4.60
2022-11-22T04:41:21.182Z,4.55
2022-11-22T04:45:23.273Z,4.51
2022-11-22T04:49:25.057Z,4.48
2022-11-22T04:53:27.636Z,4.48
2022-11-22T04:57:30.200Z,4.52
2022-11-22T05:01:32.117Z,4.53
2022-11-22T05:05:38.761Z,4.54
2022-11-22T05:09:40.417Z,4.58
2022-11-22T05:13:43.065Z,4.67
2022-11-22T05:17:44.756Z,4.72
2022-11-22T05:21:46.480Z,4.75
2022-11-22T05:25:48.232Z,4.78
2022-11-22T05:29:49.911Z,4.79
2022-11-22T05:33:53.324Z,4.84
2022-11-22T05:37:56.988Z,4.88
2022-11-22T05:41:58.752Z,4.92
2022-11-22T05:46:09.531Z,4.93
2022-11-22T05:50:11.591Z,4.93
2022-11-22T05:54:13.317Z,4.92
2022-11-22T05:58:15.050Z,4.86
2022-11-22T06:02:17.036Z,4.81
2022-11-22T06:06:19.040Z,4.79
2022-11-22T06:10:20.793Z,4.79
2022-11-22T06:14:22.515Z,4.82
2022-11-22T06:18:24.201Z,4.84
2022-11-22T06:22:26.501Z,4.85
2022-11-22T06:26:28.282Z,4.88
2022-11-22T06:30:29.950Z,4.88
2022-11-22T06:34:31.707Z,4.88
2022-11-22T06:38:33.889Z,4.90
2022-11-22T06:42:35.576Z,4.93
2022-11-22T06:46:38.220Z,4.93
2022-11-22T06:50:39.896Z,4.94
2022-11-22T06:54:41.648Z,4.95
2022-11-22T06:58:44.578Z,4.96
2022-11-22T07:02:46.250Z,4.97
2022-11-22T07:06:47.955Z,4.97
2022-11-22T07:10:49.634Z,4.97
2022-11-22T07:14:51.280Z,4.96
2022-11-22T07:18:53.076Z,4.96
2022-11-22T07:22:54.761Z,4.95
2022-11-22T07:26:56.575Z,4.94
2022-11-22T07:31:03.451Z,4.93
2022-11-22T07:35:05.677Z,4.92
2022-11-22T07:39:07.382Z,4.91
2022-11-22T07:43:09.201Z,4.91
2022-11-22T07:47:10.869Z,4.93
2022-11-22T07:51:12.508Z,4.94
2022-11-22T07:55:14.530Z,4.97
2022-11-22T07:59:16.403Z,5.00
2022-11-22T08:03:19.854Z,5.03
2022-11-22T08:07:24.483Z,5.07
2022-11-22T08:11:26.335Z,5.11
2022-11-22T08:15:28.044Z,5.15
2022-11-22T08:19:31.219Z,5.19
2022-11-22T08:23:33.739Z,5.20
2022-11-22T08:27:35.478Z,5.24
2022-11-22T08:31:37.708Z,5.27
2022-11-22T08:35:39.440Z,5.29
2022-11-22T08:39:41.151Z,5.31
2022-11-22T08:43:42.855Z,5.33
2022-11-22T08:47:44.569Z,5.38
2022-11-22T08:51:46.908Z,5.43
2022-11-22T08:55:49.007Z,5.43
2022-11-22T08:59:50.639Z,5.41
2022-11-22T09:03:52.467Z,5.41
2022-11-22T09:12:15.884Z,5.46
2022-11-22T09:16:20.945Z,5.48
2022-11-22T09:20:22.591Z,5.50
2022-11-22T09:24:24.349Z,5.51
2022-11-22T09:28:27.362Z,5.51
2022-11-22T09:32:33.491Z,5.56
2022-11-22T09:36:35.799Z,5.59
2022-11-22T09:40:37.429Z,5.62
2022-11-22T09:44:42.085Z,5.65
2022-11-22T09:48:58.213Z,5.69
2022-11-22T09:53:07.305Z,5.72
2022-11-22T09:57:33.160Z,5.75
2022-11-22T10:01:45.936Z,5.76
2022-11-22T10:05:53.291Z,5.75
2022-11-22T10:09:59.073Z,5.76
2022-11-22T10:14:34.831Z,5.80
2022-11-22T10:19:05.666Z,5.83
2022-11-22T10:23:19.788Z,5.92
2022-11-22T10:27:22.108Z,5.98
2022-11-22T10:31:30.525Z,5.95
2022-11-22T10:36:04.581Z,5.93
2022-11-22T10:40:24.323Z,5.99
2022-11-22T10:44:34.998Z,6.02
2022-11-22T10:49:08.930Z,6.01
2022-11-22T10:53:45.638Z,6.02
2022-11-22T10:57:56.067Z,5.99
2022-11-22T11:02:32.226Z,5.97
2022-11-22T11:11:15.300Z,5.95
2022-11-22T11:15:38.417Z,5.99
2022-11-22T11:19:44.324Z,6.00
2022-11-22T11:23:46.142Z,6.05
2022-11-22T11:27:47.865Z,6.10
2022-11-22T11:32:11.919Z,6.15
2022-11-22T11:36:19.207Z,6.18
2022-11-22T11:40:32.512Z,6.19
2022-11-22T11:44:36.678Z,6.22
2022-11-22T11:48:38.385Z,6.23
2022-11-22T11:52:40.103Z,6.24
2022-11-22T11:56:43.444Z,6.25
2022-11-22T12:00:45.550Z,6.29
2022-11-22T12:04:58.118Z,6.35
2022-11-22T12:09:01.669Z,6.40
2022-11-22T12:13:11.695Z,6.44
2022-11-22T12:17:24.940Z,6.46
2022-11-22T12:21:26.548Z,6.49
2022-11-22T12:25:35.719Z,6.52
2022-11-22T12:29:40.294Z,6.52
2022-11-22T12:33:55.261Z,6.52
2022-11-22T12:38:12.504Z,6.53
2022-11-22T12:42:23.254Z,6.54
2022-11-22T12:46:39.627Z,6.54
2022-11-22T12:50:48.936Z,6.56
2022-11-22T12:55:00.948Z,6.57
2022-11-22T12:59:08.289Z,6.59
2022-11-22T13:03:18.143Z,6.62
2022-11-22T13:07:47.688Z,6.65
2022-11-22T14:39:53.661Z,6.70
2022-11-22T14:44:14.653Z,6.83
2022-11-22T14:48:22.568Z,6.93
2022-11-22T14:52:32.550Z,7.01
2022-11-22T14:56:35.957Z,7.05
2022-11-22T15:00:43.836Z,7.08
2022-11-22T15:09:17.454Z,7.09
2022-11-22T15:10:11.168Z,7.12
2022-11-22T15:14:24.764Z,7.10
2022-11-22T15:59:07.968Z,6.85
2022-11-22T16:03:22.889Z,6.82
2022-11-22T16:07:36.748Z,6.80
2022-11-22T16:11:40.148Z,6.79
2022-11-22T16:15:42.048Z,6.77
2022-11-22T16:19:43.824Z,6.75
2022-11-22T16:23:46.029Z,6.75
2022-11-22T16:27:49.098Z,6.75
2022-11-22T16:31:50.792Z,6.75
2022-11-22T16:35:57.632Z,6.76
2022-11-22T16:39:59.325Z,6.75
2022-11-22T16:44:04.232Z,6.73
2022-11-22T16:48:31.461Z,6.70
2022-11-22T16:52:34.298Z,6.67
2022-11-22T16:56:36.042Z,6.67
2022-11-22T17:00:38.033Z,6.67
2022-11-22T17:04:41.280Z,6.66
2022-11-22T17:08:43.026Z,6.63
2022-11-22T17:12:44.881Z,6.62
2022-11-22T17:16:46.921Z,6.63
2022-11-22T17:20:49.516Z,6.64
2022-11-22T17:24:51.475Z,6.60
2022-11-22T17:28:53.633Z,6.58
2022-11-22T17:32:55.384Z,6.53
2022-11-22T17:36:57.078Z,6.53
2022-11-22T17:41:00.091Z,6.53
2022-11-22T17:45:02.005Z,6.53
2022-11-22T17:49:04.055Z,6.53
2022-11-22T17:53:05.972Z,6.56
2022-11-22T17:57:07.690Z,6.58
2022-11-22T18:01:18.088Z,6.61
2022-11-22T18:05:19.811Z,6.64
2022-11-22T18:09:21.479Z,6.66
2022-11-22T18:13:23.548Z,6.69
2022-11-22T18:17:25.247Z,6.73
2022-11-22T18:21:32.269Z,6.75
2022-11-22T18:25:36.740Z,6.78
2022-11-22T18:29:42.471Z,6.83
2022-11-22T18:33:44.666Z,6.86
2022-11-22T18:37:46.428Z,6.90
2022-11-22T18:41:48.703Z,6.90
2022-11-22T18:45:50.402Z,6.91
2022-11-22T18:49:52.072Z,6.90
2022-11-22T18:53:53.983Z,6.90
2022-11-22T18:57:55.706Z,6.92
2022-11-22T19:01:57.437Z,6.94
2022-11-22T19:05:59.080Z,6.96
2022-11-22T19:10:02.347Z,6.96
2022-11-22T19:14:04.349Z,6.98
2022-11-22T19:18:09.597Z,6.98
2022-11-22T19:22:11.277Z,6.99
2022-11-22T19:26:15.788Z,6.99
2022-11-22T19:30:17.577Z,7.01
2022-11-22T19:34:19.398Z,7.01
2022-11-22T19:38:21.110Z,7.02
2022-11-22T19:42:22.846Z,7.02
2022-11-22T19:46:25.665Z,7.03
2022-11-22T19:50:27.383Z,7.05
2022-11-22T19:54:29.092Z,7.07
2022-11-22T19:58:31.450Z,7.09
2022-11-22T20:02:33.128Z,7.11
2022-11-22T20:06:36.157Z,7.11
2022-11-22T20:10:39.946Z,7.12
2022-11-22T20:14:41.705Z,7.13
2022-11-22T20:18:43.660Z,7.13
2022-11-22T20:22:45.423Z,7.15
2022-11-22T20:26:47.203Z,7.16
2022-11-22T20:30:48.825Z,7.18
2022-11-22T20:34:50.519Z,7.20
2022-11-22T20:38:53.446Z,7.22
2022-11-22T20:42:55.153Z,7.21
2022-11-22T20:46:56.848Z,7.23
2022-11-22T20:51:00.180Z,7.24
2022-11-22T20:55:05.005Z,7.25
2022-11-22T20:59:07.366Z,7.26
2022-11-22T21:03:09.383Z,7.24
2022-11-22T21:07:11.186Z,7.24
2022-11-22T21:11:16.538Z,7.23
2022-11-22T21:15:19.225Z,7.22
2022-11-22T21:19:20.988Z,7.21
2022-11-22T21:23:22.684Z,7.20
2022-11-22T21:27:24.339Z,7.20
2022-11-22T21:31:27.127Z,7.21
2022-11-22T21:35:28.946Z,7.22
2022-11-22T21:39:30.605Z,7.22
2022-11-22T21:43:32.753Z,7.22
2022-11-22T21:47:34.432Z,7.22
2022-11-22T21:51:36.144Z,7.23
2022-11-22T21:55:38.216Z,7.24
2022-11-22T21:59:39.882Z,7.28
2022-11-22T22:03:41.630Z,7.29
2022-11-22T22:07:52.731Z,7.31
2022-11-22T22:11:54.993Z,7.33
2022-11-22T22:16:03.830Z,7.35
2022-11-22T22:20:06.281Z,7.38
2022-11-22T22:24:11.557Z,7.41
2022-11-22T22:28:13.472Z,7.44
2022-11-22T22:32:15.515Z,7.44
2022-11-22T22:36:17.261Z,7.45
2022-11-22T22:40:18.950Z,7.45
2022-11-22T22:44:20.610Z,7.47
2022-11-22T22:48:22.418Z,7.46
2022-11-22T22:52:24.118Z,7.46
2022-11-22T22:56:28.137Z,7.45
2022-11-22T23:00:30.001Z,7.44
2022-11-22T23:04:31.869Z,7.45
2022-11-22T23:08:34.004Z,7.45
2022-11-22T23:12:35.978Z,7.46
2022-11-22T23:16:38.804Z,7.46
2022-11-22T23:20:40.636Z,7.45
2022-11-22T23:24:42.414Z,7.40
2022-11-22T23:28:44.077Z,7.37
2022-11-22T23:32:45.852Z,7.29
2022-11-22T23:36:47.682Z,7.22
2022-11-22T23:40:53.626Z,7.16
2022-11-22T23:44:55.351Z,7.11
2022-11-22T23:48:59.579Z,7.08
2022-11-22T23:53:01.268Z,7.05
2022-11-22T23:57:02.972Z,7.05
